Terminal Aerodrome Forecast
Issued by NWS Duluth, MN

Home | Current Version | Previous Version | Text Only | Print | Product List | Glossary On
Versions: 1 2 3 4 5 6 7 8 9 10 11 12 13 14 15 16 17
000
FTUS43 KDLH 271320 AAA
TAFDLH
TAF AMD
KDLH 271320Z 2713/2812 10006KT P6SM VCSH SCT002 BKN120
      TEMPO 2713/2715 -SHRA BKN002
     FM271500 14008KT P6SM VCSH SCT060 BKN100
     FM272200 15004KT P6SM VCSH BKN050 OVC080
     FM280500 VRB02KT 5SM BR FEW050=

USA.gov is the U.S. government's official web portal to all federal, state and local government web resources and services.